sensor_id;sensor_type;location;lat;lon;timestamp;temperature;humidity
12901;DHT22;6518;50.930;5.344;2023-03-12T00:01:14;4.50;73.20
12901;DHT22;6518;50.930;5.344;2023-03-12T00:03:41;4.50;73.30
12901;DHT22;6518;50.930;5.344;2023-03-12T00:06:07;4.50;73.50
12901;DHT22;6518;50.930;5.344;2023-03-12T00:08:34;4.50;73.40
12901;DHT22;6518;50.930;5.344;2023-03-12T00:11:05;4.50;73.60
12901;DHT22;6518;50.930;5.344;2023-03-12T00:13:34;4.70;73.70
12901;DHT22;6518;50.930;5.344;2023-03-12T00:16:06;4.50;73.50
12901;DHT22;6518;50.930;5.344;2023-03-12T00:18:33;4.50;73.60
12901;DHT22;6518;50.930;5.344;2023-03-12T00:21:00;4.50;73.50
12901;DHT22;6518;50.930;5.344;2023-03-12T00:23:27;4.50;73.40
12901;DHT22;6518;50.930;5.344;2023-03-12T00:25:58;4.50;73.40
12901;DHT22;6518;50.930;5.344;2023-03-12T00:28:25;4.50;73.40
12901;DHT22;6518;50.930;5.344;2023-03-12T00:30:53;4.50;73.40
12901;DHT22;6518;50.930;5.344;2023-03-12T00:33:23;4.50;73.60
12901;DHT22;6518;50.930;5.344;2023-03-12T00:35:50;4.50;73.30
12901;DHT22;6518;50.930;5.344;2023-03-12T00:38:17;4.50;73.40
12901;DHT22;6518;50.930;5.344;2023-03-12T00:40:44;4.60;73.50
12901;DHT22;6518;50.930;5.344;2023-03-12T00:43:11;4.50;73.40
12901;DHT22;6518;50.930;5.344;2023-03-12T00:45:38;4.50;73.60
12901;DHT22;6518;50.930;5.344;2023-03-12T00:48:06;4.60;73.70
12901;DHT22;6518;50.930;5.344;2023-03-12T00:50:33;4.60;73.60
12901;DHT22;6518;50.930;5.344;2023-03-12T00:53:00;4.60;73.70
12901;DHT22;6518;50.930;5.344;2023-03-12T00:55:27;4.60;73.70
12901;DHT22;6518;50.930;5.344;2023-03-12T00:57:54;4.60;73.70
12901;DHT22;6518;50.930;5.344;2023-03-12T01:00:21;4.60;73.70
12901;DHT22;6518;50.930;5.344;2023-03-12T01:02:48;4.60;73.70
12901;DHT22;6518;50.930;5.344;2023-03-12T01:05:16;4.60;73.80
12901;DHT22;6518;50.930;5.344;2023-03-12T01:07:43;4.60;73.80
12901;DHT22;6518;50.930;5.344;2023-03-12T01:10:12;4.60;73.90
12901;DHT22;6518;50.930;5.344;2023-03-12T01:12:39;4.60;73.90
12901;DHT22;6518;50.930;5.344;2023-03-12T01:15:07;4.60;74.00
12901;DHT22;6518;50.930;5.344;2023-03-12T01:17:34;4.60;74.00
12901;DHT22;6518;50.930;5.344;2023-03-12T01:20:01;4.60;73.90
12901;DHT22;6518;50.930;5.344;2023-03-12T01:22:29;4.60;74.00
12901;DHT22;6518;50.930;5.344;2023-03-12T01:24:56;4.60;74.10
12901;DHT22;6518;50.930;5.344;2023-03-12T01:27:24;4.60;74.10
12901;DHT22;6518;50.930;5.344;2023-03-12T01:29:51;4.00;73.80
12901;DHT22;6518;50.930;5.344;2023-03-12T01:32:18;4.60;74.20
12901;DHT22;6518;50.930;5.344;2023-03-12T01:34:45;4.60;74.20
12901;DHT22;6518;50.930;5.344;2023-03-12T01:37:12;4.60;74.40
12901;DHT22;6518;50.930;5.344;2023-03-12T01:39:40;4.60;74.40
12901;DHT22;6518;50.930;5.344;2023-03-12T01:42:07;4.60;74.40
12901;DHT22;6518;50.930;5.344;2023-03-12T01:44:52;4.60;74.50
12901;DHT22;6518;50.930;5.344;2023-03-12T01:47:19;4.60;74.40
12901;DHT22;6518;50.930;5.344;2023-03-12T01:49:47;4.60;74.30
12901;DHT22;6518;50.930;5.344;2023-03-12T01:52:17;4.70;74.50
12901;DHT22;6518;50.930;5.344;2023-03-12T01:54:50;4.70;74.50
12901;DHT22;6518;50.930;5.344;2023-03-12T01:57:22;4.70;74.50
12901;DHT22;6518;50.930;5.344;2023-03-12T01:59:51;4.70;74.60
12901;DHT22;6518;50.930;5.344;2023-03-12T02:02:20;4.70;74.50
12901;DHT22;6518;50.930;5.344;2023-03-12T02:04:53;4.70;74.60
12901;DHT22;6518;50.930;5.344;2023-03-12T02:07:21;4.70;74.60
12901;DHT22;6518;50.930;5.344;2023-03-12T02:09:49;4.70;74.60
12901;DHT22;6518;50.930;5.344;2023-03-12T02:12:16;4.70;74.60
12901;DHT22;6518;50.930;5.344;2023-03-12T02:14:43;4.70;74.70
12901;DHT22;6518;50.930;5.344;2023-03-12T02:17:10;4.70;74.60
12901;DHT22;6518;50.930;5.344;2023-03-12T02:19:43;4.80;75.50
12901;DHT22;6518;50.930;5.344;2023-03-12T02:22:13;4.80;74.80
12901;DHT22;6518;50.930;5.344;2023-03-12T02:24:45;4.80;74.80
12901;DHT22;6518;50.930;5.344;2023-03-12T02:27:15;4.80;74.80
12901;DHT22;6518;50.930;5.344;2023-03-12T02:29:43;4.80;74.90
12901;DHT22;6518;50.930;5.344;2023-03-12T02:32:17;4.80;75.10
12901;DHT22;6518;50.930;5.344;2023-03-12T02:34:45;4.80;75.10
12901;DHT22;6518;50.930;5.344;2023-03-12T02:37:12;4.80;75.30
12901;DHT22;6518;50.930;5.344;2023-03-12T02:39:40;4.80;75.30
12901;DHT22;6518;50.930;5.344;2023-03-12T02:42:08;4.80;75.40
12901;DHT22;6518;50.930;5.344;2023-03-12T02:44:36;4.90;75.70
12901;DHT22;6518;50.930;5.344;2023-03-12T02:47:04;4.80;75.50
12901;DHT22;6518;50.930;5.344;2023-03-12T02:49:32;4.80;75.60
12901;DHT22;6518;50.930;5.344;2023-03-12T02:52:00;4.80;75.80
12901;DHT22;6518;50.930;5.344;2023-03-12T02:54:27;4.80;76.00
12901;DHT22;6518;50.930;5.344;2023-03-12T02:56:55;4.90;76.50
12901;DHT22;6518;50.930;5.344;2023-03-12T02:59:22;4.90;76.40
12901;DHT22;6518;50.930;5.344;2023-03-12T03:01:53;4.80;76.30
12901;DHT22;6518;50.930;5.344;2023-03-12T03:04:20;4.90;76.40
12901;DHT22;6518;50.930;5.344;2023-03-12T03:06:47;4.90;76.60
12901;DHT22;6518;50.930;5.344;2023-03-12T03:09:14;4.90;76.70
12901;DHT22;6518;50.930;5.344;2023-03-12T03:11:41;4.90;77.00
12901;DHT22;6518;50.930;5.344;2023-03-12T03:14:08;4.90;77.10
12901;DHT22;6518;50.930;5.344;2023-03-12T03:16:35;4.90;77.40
12901;DHT22;6518;50.930;5.344;2023-03-12T03:19:03;4.90;77.40
12901;DHT22;6518;50.930;5.344;2023-03-12T03:21:30;4.90;77.50
12901;DHT22;6518;50.930;5.344;2023-03-12T03:23:57;4.90;77.80
12901;DHT22;6518;50.930;5.344;2023-03-12T03:26:24;4.90;78.10
12901;DHT22;6518;50.930;5.344;2023-03-12T03:28:51;4.90;78.10
12901;DHT22;6518;50.930;5.344;2023-03-12T03:31:18;4.90;78.40
12901;DHT22;6518;50.930;5.344;2023-03-12T03:33:45;4.90;78.40
12901;DHT22;6518;50.930;5.344;2023-03-12T03:36:14;4.90;78.90
12901;DHT22;6518;50.930;5.344;2023-03-12T03:38:41;4.90;79.00
12901;DHT22;6518;50.930;5.344;2023-03-12T03:41:13;4.90;80.00
12901;DHT22;6518;50.930;5.344;2023-03-12T03:43:40;4.80;79.50
12901;DHT22;6518;50.930;5.344;2023-03-12T03:46:07;4.80;80.30
12901;DHT22;6518;50.930;5.344;2023-03-12T03:48:34;4.80;81.50
12901;DHT22;6518;50.930;5.344;2023-03-12T03:51:01;4.80;80.50
12901;DHT22;6518;50.930;5.344;2023-03-12T03:53:30;4.70;81.40
12901;DHT22;6518;50.930;5.344;2023-03-12T03:55:57;4.70;81.90
12901;DHT22;6518;50.930;5.344;2023-03-12T03:58:24;4.80;82.50
12901;DHT22;6518;50.930;5.344;2023-03-12T04:00:50;4.70;83.60
12901;DHT22;6518;50.930;5.344;2023-03-12T04:03:19;4.70;83.70
12901;DHT22;6518;50.930;5.344;2023-03-12T04:05:46;4.70;82.90
12901;DHT22;6518;50.930;5.344;2023-03-12T04:08:13;4.70;83.50
12901;DHT22;6518;50.930;5.344;2023-03-12T04:10:41;4.60;84.00
12901;DHT22;6518;50.930;5.344;2023-03-12T04:13:07;4.70;84.60
12901;DHT22;6518;50.930;5.344;2023-03-12T04:15:34;4.70;84.20
12901;DHT22;6518;50.930;5.344;2023-03-12T04:18:01;4.70;84.80
12901;DHT22;6518;50.930;5.344;2023-03-12T04:20:28;4.70;85.90
12901;DHT22;6518;50.930;5.344;2023-03-12T04:22:54;4.60;85.10
12901;DHT22;6518;50.930;5.344;2023-03-12T04:25:22;4.60;85.10
12901;DHT22;6518;50.930;5.344;2023-03-12T04:27:51;4.60;85.80
12901;DHT22;6518;50.930;5.344;2023-03-12T04:30:18;4.70;85.80
12901;DHT22;6518;50.930;5.344;2023-03-12T04:32:44;4.60;85.60
12901;DHT22;6518;50.930;5.344;2023-03-12T04:35:11;4.40;85.70
12901;DHT22;6518;50.930;5.344;2023-03-12T04:37:38;4.70;86.30
12901;DHT22;6518;50.930;5.344;2023-03-12T04:40:05;4.70;86.10
12901;DHT22;6518;50.930;5.344;2023-03-12T04:42:34;4.70;86.30
12901;DHT22;6518;50.930;5.344;2023-03-12T04:45:03;4.70;86.60
12901;DHT22;6518;50.930;5.344;2023-03-12T04:47:31;4.70;87.10
12901;DHT22;6518;50.930;5.344;2023-03-12T04:49:58;4.70;87.00
12901;DHT22;6518;50.930;5.344;2023-03-12T04:52:25;4.70;87.20
12901;DHT22;6518;50.930;5.344;2023-03-12T04:54:52;4.70;87.50
12901;DHT22;6518;50.930;5.344;2023-03-12T04:57:19;4.80;88.00
12901;DHT22;6518;50.930;5.344;2023-03-12T04:59:46;4.80;88.20
12901;DHT22;6518;50.930;5.344;2023-03-12T05:02:14;4.80;88.60
12901;DHT22;6518;50.930;5.344;2023-03-12T05:04:41;4.80;89.70
12901;DHT22;6518;50.930;5.344;2023-03-12T05:07:08;4.80;89.50
12901;DHT22;6518;50.930;5.344;2023-03-12T05:09:35;4.80;90.10
12901;DHT22;6518;50.930;5.344;2023-03-12T05:12:02;4.90;90.30
12901;DHT22;6518;50.930;5.344;2023-03-12T05:14:29;4.90;90.70
12901;DHT22;6518;50.930;5.344;2023-03-12T05:16:56;4.90;91.10
12901;DHT22;6518;50.930;5.344;2023-03-12T05:19:24;4.90;91.20
12901;DHT22;6518;50.930;5.344;2023-03-12T05:21:51;4.90;91.80
12901;DHT22;6518;50.930;5.344;2023-03-12T05:24:17;4.90;92.00
12901;DHT22;6518;50.930;5.344;2023-03-12T05:26:46;4.90;92.40
12901;DHT22;6518;50.930;5.344;2023-03-12T05:29:13;4.90;92.90
12901;DHT22;6518;50.930;5.344;2023-03-12T05:31:39;4.90;93.20
12901;DHT22;6518;50.930;5.344;2023-03-12T05:34:06;4.90;93.70
12901;DHT22;6518;50.930;5.344;2023-03-12T05:36:34;4.90;94.40
12901;DHT22;6518;50.930;5.344;2023-03-12T05:39:01;4.90;94.40
12901;DHT22;6518;50.930;5.344;2023-03-12T05:41:29;4.90;95.20
12901;DHT22;6518;50.930;5.344;2023-03-12T05:43:56;4.90;97.00
12901;DHT22;6518;50.930;5.344;2023-03-12T05:46:24;4.90;97.20
12901;DHT22;6518;50.930;5.344;2023-03-12T05:48:52;4.90;98.60
12901;DHT22;6518;50.930;5.344;2023-03-12T05:51:19;4.80;99.40
12901;DHT22;6518;50.930;5.344;2023-03-12T05:53:47;4.80;99.90
12901;DHT22;6518;50.930;5.344;2023-03-12T05:56:16;4.80;99.90
12901;DHT22;6518;50.930;5.344;2023-03-12T05:58:44;4.80;99.90
12901;DHT22;6518;50.930;5.344;2023-03-12T06:01:15;4.90;99.90
12901;DHT22;6518;50.930;5.344;2023-03-12T06:03:42;4.90;99.90
12901;DHT22;6518;50.930;5.344;2023-03-12T06:06:09;4.90;99.90
12901;DHT22;6518;50.930;5.344;2023-03-12T06:08:36;4.90;99.90
12901;DHT22;6518;50.930;5.344;2023-03-12T06:11:05;4.90;99.90
12901;DHT22;6518;50.930;5.344;2023-03-12T06:13:31;4.90;99.90
12901;DHT22;6518;50.930;5.344;2023-03-12T06:16:01;4.90;99.90
12901;DHT22;6518;50.930;5.344;2023-03-12T06:18:30;4.90;99.90
12901;DHT22;6518;50.930;5.344;2023-03-12T06:21:07;5.00;99.90
12901;DHT22;6518;50.930;5.344;2023-03-12T06:23:34;5.00;99.90
12901;DHT22;6518;50.930;5.344;2023-03-12T06:26:01;5.00;99.90
12901;DHT22;6518;50.930;5.344;2023-03-12T06:28:29;5.00;99.90
12901;DHT22;6518;50.930;5.344;2023-03-12T06:30:55;5.10;99.90
12901;DHT22;6518;50.930;5.344;2023-03-12T06:33:22;5.10;99.90
12901;DHT22;6518;50.930;5.344;2023-03-12T06:35:53;5.20;99.90
12901;DHT22;6518;50.930;5.344;2023-03-12T06:38:20;5.20;99.90
12901;DHT22;6518;50.930;5.344;2023-03-12T06:40:53;5.20;99.90
12901;DHT22;6518;50.930;5.344;2023-03-12T06:43:20;5.20;99.90
12901;DHT22;6518;50.930;5.344;2023-03-12T06:45:48;5.20;99.90
12901;DHT22;6518;50.930;5.344;2023-03-12T06:48:15;5.20;99.90
12901;DHT22;6518;50.930;5.344;2023-03-12T06:50:42;5.30;99.90
12901;DHT22;6518;50.930;5.344;2023-03-12T06:53:09;5.30;99.90
12901;DHT22;6518;50.930;5.344;2023-03-12T06:55:36;5.30;99.90
12901;DHT22;6518;50.930;5.344;2023-03-12T06:58:03;5.40;99.90
12901;DHT22;6518;50.930;5.344;2023-03-12T07:00:30;5.40;99.90
12901;DHT22;6518;50.930;5.344;2023-03-12T07:02:58;5.40;99.90
12901;DHT22;6518;50.930;5.344;2023-03-12T07:05:24;5.50;99.90
12901;DHT22;6518;50.930;5.344;2023-03-12T07:07:51;5.50;99.90
12901;DHT22;6518;50.930;5.344;2023-03-12T07:10:18;5.60;99.90
12901;DHT22;6518;50.930;5.344;2023-03-12T07:12:45;5.60;99.90
12901;DHT22;6518;50.930;5.344;2023-03-12T07:15:12;5.60;99.90
12901;DHT22;6518;50.930;5.344;2023-03-12T07:17:39;5.60;99.90
12901;DHT22;6518;50.930;5.344;2023-03-12T07:20:09;5.70;99.90
12901;DHT22;6518;50.930;5.344;2023-03-12T07:22:36;5.70;99.90
12901;DHT22;6518;50.930;5.344;2023-03-12T07:25:03;5.70;99.90
12901;DHT22;6518;50.930;5.344;2023-03-12T07:27:30;5.80;99.90
12901;DHT22;6518;50.930;5.344;2023-03-12T07:29:57;5.80;99.90
12901;DHT22;6518;50.930;5.344;2023-03-12T07:32:24;5.80;99.90
12901;DHT22;6518;50.930;5.344;2023-03-12T07:34:51;5.90;99.90
12901;DHT22;6518;50.930;5.344;2023-03-12T07:37:19;5.90;99.90
12901;DHT22;6518;50.930;5.344;2023-03-12T07:39:46;5.90;99.90
12901;DHT22;6518;50.930;5.344;2023-03-12T07:42:15;5.90;99.90
12901;DHT22;6518;50.930;5.344;2023-03-12T07:44:42;6.00;99.90
12901;DHT22;6518;50.930;5.344;2023-03-12T07:47:09;6.00;99.90
12901;DHT22;6518;50.930;5.344;2023-03-12T07:49:36;6.00;99.90
12901;DHT22;6518;50.930;5.344;2023-03-12T07:52:04;6.00;99.90
12901;DHT22;6518;50.930;5.344;2023-03-12T07:54:36;6.10;99.90
12901;DHT22;6518;50.930;5.344;2023-03-12T07:57:03;6.20;99.90
12901;DHT22;6518;50.930;5.344;2023-03-12T07:59:30;6.20;99.90
12901;DHT22;6518;50.930;5.344;2023-03-12T08:01:56;6.30;99.90
12901;DHT22;6518;50.930;5.344;2023-03-12T08:04:23;6.30;99.90
12901;DHT22;6518;50.930;5.344;2023-03-12T08:06:50;6.30;99.90
12901;DHT22;6518;50.930;5.344;2023-03-12T08:09:17;6.40;99.90
12901;DHT22;6518;50.930;5.344;2023-03-12T08:11:45;6.40;99.90
12901;DHT22;6518;50.930;5.344;2023-03-12T08:14:12;6.50;99.90
12901;DHT22;6518;50.930;5.344;2023-03-12T08:16:39;6.50;99.90
12901;DHT22;6518;50.930;5.344;2023-03-12T08:19:05;6.60;99.90
12901;DHT22;6518;50.930;5.344;2023-03-12T08:21:32;6.60;99.90
12901;DHT22;6518;50.930;5.344;2023-03-12T08:23:59;6.40;99.90
12901;DHT22;6518;50.930;5.344;2023-03-12T08:26:26;6.80;99.90
12901;DHT22;6518;50.930;5.344;2023-03-12T08:28:54;6.80;99.90
12901;DHT22;6518;50.930;5.344;2023-03-12T08:31:20;6.90;99.90
12901;DHT22;6518;50.930;5.344;2023-03-12T08:33:47;6.90;99.90
12901;DHT22;6518;50.930;5.344;2023-03-12T08:36:14;7.00;99.90
12901;DHT22;6518;50.930;5.344;2023-03-12T08:38:41;7.00;99.90
12901;DHT22;6518;50.930;5.344;2023-03-12T08:41:07;7.00;99.90
12901;DHT22;6518;50.930;5.344;2023-03-12T08:43:34;7.10;99.90
12901;DHT22;6518;50.930;5.344;2023-03-12T08:46:03;7.30;99.90
12901;DHT22;6518;50.930;5.344;2023-03-12T08:48:31;7.30;99.90
12901;DHT22;6518;50.930;5.344;2023-03-12T08:50:59;7.40;99.90
12901;DHT22;6518;50.930;5.344;2023-03-12T08:53:29;7.40;99.90
12901;DHT22;6518;50.930;5.344;2023-03-12T08:55:56;7.40;99.90
12901;DHT22;6518;50.930;5.344;2023-03-12T08:58:24;7.50;99.90
12901;DHT22;6518;50.930;5.344;2023-03-12T09:00:51;7.50;99.90
12901;DHT22;6518;50.930;5.344;2023-03-12T09:03:19;7.50;99.90
12901;DHT22;6518;50.930;5.344;2023-03-12T09:05:47;7.60;99.90
12901;DHT22;6518;50.930;5.344;2023-03-12T09:08:15;7.60;99.90
12901;DHT22;6518;50.930;5.344;2023-03-12T09:10:46;7.60;99.90
12901;DHT22;6518;50.930;5.344;2023-03-12T09:13:14;7.70;99.90
12901;DHT22;6518;50.930;5.344;2023-03-12T09:15:41;7.80;99.90
12901;DHT22;6518;50.930;5.344;2023-03-12T09:18:07;7.80;99.90
12901;DHT22;6518;50.930;5.344;2023-03-12T09:20:35;8.10;99.90
12901;DHT22;6518;50.930;5.344;2023-03-12T09:23:02;8.00;99.90
12901;DHT22;6518;50.930;5.344;2023-03-12T09:25:29;8.00;99.90
12901;DHT22;6518;50.930;5.344;2023-03-12T09:27:56;8.10;99.90
12901;DHT22;6518;50.930;5.344;2023-03-12T09:30:23;8.10;99.90
12901;DHT22;6518;50.930;5.344;2023-03-12T09:32:52;8.10;99.90
12901;DHT22;6518;50.930;5.344;2023-03-12T09:35:19;8.20;99.90
12901;DHT22;6518;50.930;5.344;2023-03-12T09:37:48;8.20;99.90
12901;DHT22;6518;50.930;5.344;2023-03-12T09:40:18;8.30;99.90
12901;DHT22;6518;50.930;5.344;2023-03-12T09:42:48;8.30;99.90
12901;DHT22;6518;50.930;5.344;2023-03-12T09:45:20;8.40;99.90
12901;DHT22;6518;50.930;5.344;2023-03-12T09:47:50;8.40;99.90
12901;DHT22;6518;50.930;5.344;2023-03-12T09:50:22;8.40;99.90
12901;DHT22;6518;50.930;5.344;2023-03-12T09:52:55;8.50;99.90
12901;DHT22;6518;50.930;5.344;2023-03-12T09:55:24;8.50;99.90
12901;DHT22;6518;50.930;5.344;2023-03-12T09:57:52;8.60;99.90
12901;DHT22;6518;50.930;5.344;2023-03-12T10:00:21;8.80;99.90
12901;DHT22;6518;50.930;5.344;2023-03-12T10:03:02;8.90;99.90
12901;DHT22;6518;50.930;5.344;2023-03-12T10:05:35;8.90;99.90
12901;DHT22;6518;50.930;5.344;2023-03-12T10:08:09;9.00;99.90
12901;DHT22;6518;50.930;5.344;2023-03-12T10:10:50;9.00;99.90
12901;DHT22;6518;50.930;5.344;2023-03-12T10:13:40;9.10;99.90
12901;DHT22;6518;50.930;5.344;2023-03-12T10:16:21;9.20;99.90
12901;DHT22;6518;50.930;5.344;2023-03-12T10:18:59;9.30;99.90
12901;DHT22;6518;50.930;5.344;2023-03-12T10:21:32;9.40;99.90
12901;DHT22;6518;50.930;5.344;2023-03-12T10:24:13;9.50;99.90
12901;DHT22;6518;50.930;5.344;2023-03-12T10:26:46;9.50;99.90
12901;DHT22;6518;50.930;5.344;2023-03-12T10:29:16;9.50;99.90
12901;DHT22;6518;50.930;5.344;2023-03-12T10:31:50;9.60;99.90
12901;DHT22;6518;50.930;5.344;2023-03-12T10:34:22;9.70;99.90
12901;DHT22;6518;50.930;5.344;2023-03-12T10:36:51;9.70;99.90
12901;DHT22;6518;50.930;5.344;2023-03-12T10:39:19;9.80;99.90
12901;DHT22;6518;50.930;5.344;2023-03-12T10:41:48;9.90;99.90
12901;DHT22;6518;50.930;5.344;2023-03-12T10:44:19;10.00;99.90
12901;DHT22;6518;50.930;5.344;2023-03-12T10:46:56;10.20;99.90
12901;DHT22;6518;50.930;5.344;2023-03-12T10:49:29;10.30;99.90
12901;DHT22;6518;50.930;5.344;2023-03-12T10:51:59;10.40;99.90
12901;DHT22;6518;50.930;5.344;2023-03-12T10:54:35;10.50;99.90
12901;DHT22;6518;50.930;5.344;2023-03-12T10:57:03;10.70;99.90
12901;DHT22;6518;50.930;5.344;2023-03-12T10:59:33;10.70;99.90
12901;DHT22;6518;50.930;5.344;2023-03-12T11:02:10;10.70;99.90
12901;DHT22;6518;50.930;5.344;2023-03-12T11:04:49;10.80;99.90
12901;DHT22;6518;50.930;5.344;2023-03-12T11:07:24;10.70;99.90
12901;DHT22;6518;50.930;5.344;2023-03-12T11:10:16;10.60;99.90
12901;DHT22;6518;50.930;5.344;2023-03-12T11:13:21;10.60;99.90
12901;DHT22;6518;50.930;5.344;2023-03-12T11:15:48;10.60;99.90
12901;DHT22;6518;50.930;5.344;2023-03-12T11:18:27;10.60;99.90
12901;DHT22;6518;50.930;5.344;2023-03-12T11:20:55;10.70;99.90
12901;DHT22;6518;50.930;5.344;2023-03-12T11:23:27;10.70;99.90
12901;DHT22;6518;50.930;5.344;2023-03-12T11:25:57;10.80;99.90
12901;DHT22;6518;50.930;5.344;2023-03-12T11:28:34;10.90;99.90
12901;DHT22;6518;50.930;5.344;2023-03-12T11:31:01;11.00;99.90
12901;DHT22;6518;50.930;5.344;2023-03-12T11:33:28;11.20;99.90
12901;DHT22;6518;50.930;5.344;2023-03-12T11:36:07;11.20;99.90
12901;DHT22;6518;50.930;5.344;2023-03-12T11:38:43;11.40;99.90
12901;DHT22;6518;50.930;5.344;2023-03-12T11:41:25;11.40;99.90
12901;DHT22;6518;50.930;5.344;2023-03-12T11:44:07;11.40;99.90
12901;DHT22;6518;50.930;5.344;2023-03-12T11:46:48;11.40;99.90
12901;DHT22;6518;50.930;5.344;2023-03-12T11:49:26;11.50;99.90
12901;DHT22;6518;50.930;5.344;2023-03-12T11:52:01;11.50;99.90
12901;DHT22;6518;50.930;5.344;2023-03-12T11:54:41;11.60;99.90
12901;DHT22;6518;50.930;5.344;2023-03-12T11:57:21;11.70;99.90
12901;DHT22;6518;50.930;5.344;2023-03-12T11:59:58;11.70;99.90
12901;DHT22;6518;50.930;5.344;2023-03-12T12:03:03;11.70;99.90
12901;DHT22;6518;50.930;5.344;2023-03-12T12:05:43;11.70;99.90
12901;DHT22;6518;50.930;5.344;2023-03-12T12:11:27;11.70;99.90
12901;DHT22;6518;50.930;5.344;2023-03-12T12:14:10;11.70;99.90
12901;DHT22;6518;50.930;5.344;2023-03-12T12:16:58;11.60;99.90
12901;DHT22;6518;50.930;5.344;2023-03-12T12:19:36;11.60;99.90
12901;DHT22;6518;50.930;5.344;2023-03-12T12:22:28;11.60;99.90
12901;DHT22;6518;50.930;5.344;2023-03-12T12:25:21;11.70;99.90
12901;DHT22;6518;50.930;5.344;2023-03-12T12:27:59;11.80;99.90
12901;DHT22;6518;50.930;5.344;2023-03-12T12:30:39;12.00;99.90
12901;DHT22;6518;50.930;5.344;2023-03-12T12:33:18;12.10;99.90
12901;DHT22;6518;50.930;5.344;2023-03-12T12:35:49;12.20;99.90
12901;DHT22;6518;50.930;5.344;2023-03-12T12:38:22;12.10;99.90
12901;DHT22;6518;50.930;5.344;2023-03-12T12:40:58;12.00;99.90
12901;DHT22;6518;50.930;5.344;2023-03-12T12:43:27;11.80;99.90
12901;DHT22;6518;50.930;5.344;2023-03-12T12:46:01;11.60;99.90
12901;DHT22;6518;50.930;5.344;2023-03-12T12:48:33;11.50;99.90
12901;DHT22;6518;50.930;5.344;2023-03-12T12:51:03;11.40;99.90
12901;DHT22;6518;50.930;5.344;2023-03-12T12:53:37;11.40;99.90
12901;DHT22;6518;50.930;5.344;2023-03-12T12:56:13;11.50;99.90
12901;DHT22;6518;50.930;5.344;2023-03-12T12:59:01;11.50;99.90
12901;DHT22;6518;50.930;5.344;2023-03-12T13:01:33;11.60;99.90
12901;DHT22;6518;50.930;5.344;2023-03-12T13:04:03;11.50;99.90
12901;DHT22;6518;50.930;5.344;2023-03-12T13:06:55;11.50;99.90
12901;DHT22;6518;50.930;5.344;2023-03-12T13:09:35;11.60;99.90
12901;DHT22;6518;50.930;5.344;2023-03-12T13:12:10;11.60;99.90
12901;DHT22;6518;50.930;5.344;2023-03-12T13:14:41;11.70;96.60
12901;DHT22;6518;50.930;5.344;2023-03-12T13:17:25;11.90;95.80
12901;DHT22;6518;50.930;5.344;2023-03-12T13:19:58;12.00;96.00
12901;DHT22;6518;50.930;5.344;2023-03-12T13:22:49;12.20;96.10
12901;DHT22;6518;50.930;5.344;2023-03-12T13:25:35;12.30;95.90
12901;DHT22;6518;50.930;5.344;2023-03-12T13:28:36;12.30;95.40
12901;DHT22;6518;50.930;5.344;2023-03-12T13:31:39;12.40;94.90
12901;DHT22;6518;50.930;5.344;2023-03-12T13:34:30;12.40;94.90
12901;DHT22;6518;50.930;5.344;2023-03-12T13:36:59;12.40;94.60
12901;DHT22;6518;50.930;5.344;2023-03-12T13:39:30;12.50;92.80
12901;DHT22;6518;50.930;5.344;2023-03-12T13:41:58;12.60;92.80
12901;DHT22;6518;50.930;5.344;2023-03-12T13:44:30;12.60;92.60
12901;DHT22;6518;50.930;5.344;2023-03-12T13:47:04;12.70;91.90
12901;DHT22;6518;50.930;5.344;2023-03-12T13:49:39;12.70;91.20
12901;DHT22;6518;50.930;5.344;2023-03-12T13:52:16;12.70;91.60
12901;DHT22;6518;50.930;5.344;2023-03-12T13:54:46;12.70;91.10
12901;DHT22;6518;50.930;5.344;2023-03-12T13:57:26;12.60;90.30
12901;DHT22;6518;50.930;5.344;2023-03-12T13:59:55;12.70;88.00
12901;DHT22;6518;50.930;5.344;2023-03-12T14:02:25;12.60;85.80
12901;DHT22;6518;50.930;5.344;2023-03-12T14:05:01;12.70;82.90
12901;DHT22;6518;50.930;5.344;2023-03-12T14:07:48;12.70;81.40
12901;DHT22;6518;50.930;5.344;2023-03-12T14:10:29;12.70;81.20
12901;DHT22;6518;50.930;5.344;2023-03-12T14:13:10;12.70;81.50
12901;DHT22;6518;50.930;5.344;2023-03-12T14:15:45;12.70;82.30
12901;DHT22;6518;50.930;5.344;2023-03-12T14:18:17;12.70;83.20
12901;DHT22;6518;50.930;5.344;2023-03-12T14:20:53;12.70;83.00
12901;DHT22;6518;50.930;5.344;2023-03-12T14:23:20;12.70;81.90
12901;DHT22;6518;50.930;5.344;2023-03-12T14:25:48;12.70;81.90
12901;DHT22;6518;50.930;5.344;2023-03-12T14:28:19;12.60;80.70
12901;DHT22;6518;50.930;5.344;2023-03-12T14:30:57;12.50;81.50
12901;DHT22;6518;50.930;5.344;2023-03-12T14:33:28;12.40;82.00
12901;DHT22;6518;50.930;5.344;2023-03-12T14:36:03;12.40;82.00
12901;DHT22;6518;50.930;5.344;2023-03-12T14:38:34;12.50;82.50
12901;DHT22;6518;50.930;5.344;2023-03-12T14:41:05;12.40;82.40
12901;DHT22;6518;50.930;5.344;2023-03-12T14:43:38;12.40;82.80
12901;DHT22;6518;50.930;5.344;2023-03-12T14:46:13;12.40;82.10
12901;DHT22;6518;50.930;5.344;2023-03-12T14:48:40;12.40;82.20
12901;DHT22;6518;50.930;5.344;2023-03-12T14:51:18;12.40;81.90
12901;DHT22;6518;50.930;5.344;2023-03-12T14:53:45;12.50;81.60
12901;DHT22;6518;50.930;5.344;2023-03-12T14:56:15;12.40;80.80
12901;DHT22;6518;50.930;5.344;2023-03-12T14:58:55;12.40;80.90
12901;DHT22;6518;50.930;5.344;2023-03-12T15:01:24;12.40;81.30
12901;DHT22;6518;50.930;5.344;2023-03-12T15:03:53;12.40;81.70
12901;DHT22;6518;50.930;5.344;2023-03-12T15:06:27;12.40;81.90
12901;DHT22;6518;50.930;5.344;2023-03-12T15:08:55;12.30;82.30
12901;DHT22;6518;50.930;5.344;2023-03-12T15:11:24;12.30;82.20
12901;DHT22;6518;50.930;5.344;2023-03-12T15:13:54;12.30;81.30
12901;DHT22;6518;50.930;5.344;2023-03-12T15:16:22;12.30;81.20
12901;DHT22;6518;50.930;5.344;2023-03-12T15:18:49;12.30;80.90
12901;DHT22;6518;50.930;5.344;2023-03-12T15:21:17;12.40;81.20
12901;DHT22;6518;50.930;5.344;2023-03-12T15:23:47;12.30;81.60
12901;DHT22;6518;50.930;5.344;2023-03-12T15:26:25;12.30;81.10
12901;DHT22;6518;50.930;5.344;2023-03-12T15:28:56;12.30;81.40
12901;DHT22;6518;50.930;5.344;2023-03-12T15:31:23;12.30;81.80
12901;DHT22;6518;50.930;5.344;2023-03-12T15:33:59;12.30;81.50
12901;DHT22;6518;50.930;5.344;2023-03-12T15:36:28;12.30;81.50
12901;DHT22;6518;50.930;5.344;2023-03-12T15:38:59;12.30;81.40
12901;DHT22;6518;50.930;5.344;2023-03-12T15:41:39;12.40;81.40
12901;DHT22;6518;50.930;5.344;2023-03-12T15:44:16;12.40;81.80
12901;DHT22;6518;50.930;5.344;2023-03-12T15:46:45;12.50;81.60
12901;DHT22;6518;50.930;5.344;2023-03-12T15:49:20;12.50;80.90
12901;DHT22;6518;50.930;5.344;2023-03-12T15:51:58;12.50;80.80
12901;DHT22;6518;50.930;5.344;2023-03-12T15:54:28;12.60;80.70
12901;DHT22;6518;50.930;5.344;2023-03-12T15:57:17;12.80;80.50
12901;DHT22;6518;50.930;5.344;2023-03-12T15:59:49;12.50;80.10
12901;DHT22;6518;50.930;5.344;2023-03-12T16:02:35;12.50;80.70
12901;DHT22;6518;50.930;5.344;2023-03-12T16:05:02;12.50;80.90
12901;DHT22;6518;50.930;5.344;2023-03-12T16:07:29;12.40;80.80
12901;DHT22;6518;50.930;5.344;2023-03-12T16:09:57;12.30;80.60
12901;DHT22;6518;50.930;5.344;2023-03-12T16:12:24;12.30;80.80
12901;DHT22;6518;50.930;5.344;2023-03-12T16:14:51;12.20;81.10
12901;DHT22;6518;50.930;5.344;2023-03-12T16:17:20;12.20;81.20
12901;DHT22;6518;50.930;5.344;2023-03-12T16:19:48;12.10;81.30
12901;DHT22;6518;50.930;5.344;2023-03-12T16:22:15;12.10;81.10